createdAt,value
2023-04-10T00:02:03.157Z,10.89
2023-04-10T00:04:41.713Z,10.92
2023-04-10T00:07:24.792Z,10.95
2023-04-10T00:09:58.379Z,11.00
2023-04-10T00:12:38.869Z,11.04
2023-04-10T00:15:20.236Z,11.06
2023-04-10T00:17:55.880Z,11.08
2023-04-10T00:20:29.881Z,11.13
2023-04-10T00:23:12.537Z,11.18
2023-04-10T00:25:49.093Z,11.22
2023-04-10T00:28:22.100Z,11.28
2023-04-10T00:30:57.812Z,11.31
2023-04-10T00:33:51.235Z,11.32
2023-04-10T00:36:24.141Z,11.30
2023-04-10T00:39:10.931Z,11.26
2023-04-10T00:41:42.450Z,11.26
2023-04-10T00:44:14.451Z,11.26
2023-04-10T00:46:52.537Z,11.27
2023-04-10T00:49:32.754Z,11.31
2023-04-10T00:52:15.124Z,11.36
2023-04-10T00:54:51.794Z,11.38
2023-04-10T00:57:25.346Z,11.34
2023-04-10T00:59:59.186Z,11.30
2023-04-10T01:02:34.636Z,11.29
2023-04-10T01:05:13.670Z,11.27
2023-04-10T01:07:55.734Z,11.29
2023-04-10T01:11:08.661Z,11.28
2023-04-10T01:13:49.570Z,11.28
2023-04-10T01:16:26.971Z,11.25
2023-04-10T01:19:25.872Z,11.24
2023-04-10T01:21:59.924Z,11.25
2023-04-10T01:25:14.055Z,11.25
2023-04-10T01:28:27.306Z,11.23
2023-04-10T01:31:01.397Z,11.16
2023-04-10T01:33:45.995Z,11.13
2023-04-10T01:36:17.021Z,11.13
2023-04-10T01:38:49.375Z,11.13
2023-04-10T01:41:19.801Z,11.08
2023-04-10T01:44:00.246Z,11.06
2023-04-10T01:46:32.403Z,11.08
2023-04-10T01:49:10.051Z,11.10
2023-04-10T01:51:46.836Z,11.09
2023-04-10T01:54:16.254Z,11.08
2023-04-10T01:56:52.777Z,11.06
2023-04-10T01:59:31.414Z,11.06
2023-04-10T02:02:02.263Z,11.07
2023-04-10T02:04:33.945Z,11.04
2023-04-10T02:07:54.617Z,11.06
2023-04-10T02:10:31.354Z,11.04
2023-04-10T02:13:10.207Z,11.00
2023-04-10T02:15:50.228Z,10.98
2023-04-10T02:18:20.924Z,10.99
2023-04-10T02:20:54.690Z,10.99
2023-04-10T02:23:32.678Z,11.00
2023-04-10T02:26:15.728Z,11.04
2023-04-10T02:28:54.347Z,11.08
2023-04-10T02:31:33.373Z,11.07
2023-04-10T02:34:08.536Z,11.04
2023-04-10T02:36:42.788Z,11.01
2023-04-10T02:39:20.320Z,10.93
2023-04-10T02:42:53.523Z,10.90
2023-04-10T02:45:32.475Z,10.92
2023-04-10T02:48:50.500Z,10.94
2023-04-10T02:51:38.909Z,10.91
2023-04-10T02:54:18.290Z,10.88
2023-04-10T02:56:50.170Z,10.86
2023-04-10T02:59:26.624Z,10.87
2023-04-10T03:02:07.028Z,10.87
2023-04-10T03:04:45.296Z,10.89
2023-04-10T03:07:24.413Z,10.93
2023-04-10T03:10:02.832Z,10.96
2023-04-10T03:12:37.044Z,11.02
2023-04-10T03:15:12.636Z,11.04
2023-04-10T03:17:44.199Z,11.03
2023-04-10T03:20:20.909Z,11.05
2023-04-10T03:22:55.295Z,11.09
2023-04-10T03:25:33.408Z,11.10
2023-04-10T03:28:06.116Z,11.10
2023-04-10T03:31:03.165Z,11.08
2023-04-10T03:33:39.205Z,11.04
2023-04-10T03:36:14.365Z,11.00
2023-04-10T03:38:55.846Z,10.97
2023-04-10T03:41:30.050Z,10.95
2023-04-10T03:44:05.197Z,10.92
2023-04-10T03:47:06.240Z,10.89
2023-04-10T03:49:43.803Z,10.82
2023-04-10T03:52:39.461Z,10.76
2023-04-10T03:55:11.198Z,10.77
2023-04-10T03:58:05.002Z,10.80
2023-04-10T04:00:38.503Z,10.85
2023-04-10T04:03:39.214Z,10.90
2023-04-10T04:06:48.266Z,10.96
2023-04-10T04:13:30.511Z,11.02
2023-04-10T04:16:48.314Z,11.01
2023-04-10T04:19:36.514Z,11.03
2023-04-10T04:22:59.734Z,11.02
2023-04-10T04:26:13.853Z,10.99
2023-04-10T04:29:36.619Z,10.94
2023-04-10T04:32:58.511Z,10.91
2023-04-10T04:36:03.056Z,10.92
2023-04-10T04:39:15.807Z,10.93
2023-04-10T04:42:39.663Z,10.94
2023-04-10T04:45:29.297Z,10.98
2023-04-10T04:48:47.650Z,10.97
2023-04-10T04:52:25.697Z,10.97
2023-04-10T04:55:33.112Z,11.00
2023-04-10T04:59:21.898Z,11.06
2023-04-10T05:03:15.796Z,11.10
2023-04-10T05:06:05.627Z,11.28
2023-04-10T05:09:27.869Z,11.32
2023-04-10T05:12:13.678Z,11.30
2023-04-10T05:15:11.142Z,11.31
2023-04-10T05:18:11.710Z,11.27
2023-04-10T05:21:05.114Z,11.34
2023-04-10T05:24:31.239Z,11.34
2023-04-10T05:27:39.125Z,11.37
2023-04-10T05:31:39.241Z,11.39
2023-04-10T05:34:40.088Z,11.42
2023-04-10T05:37:17.181Z,11.34
2023-04-10T05:40:24.632Z,11.27
2023-04-10T05:43:28.354Z,11.24
2023-04-10T05:46:28.244Z,11.26
2023-04-10T05:49:01.979Z,11.27
2023-04-10T05:56:54.798Z,11.23
2023-04-10T06:00:25.271Z,11.20
2023-04-10T06:04:36.275Z,11.19
2023-04-10T06:07:33.814Z,11.11
2023-04-10T06:10:20.280Z,11.02
2023-04-10T06:13:18.364Z,11.00
2023-04-10T06:15:58.477Z,11.02
2023-04-10T06:18:54.623Z,11.03
2023-04-10T06:21:43.904Z,11.08
2023-04-10T06:24:36.160Z,11.08
2023-04-10T06:27:22.032Z,11.10
2023-04-10T06:30:01.991Z,11.17
2023-04-10T06:32:48.500Z,11.26
2023-04-10T06:35:24.352Z,11.36
2023-04-10T06:38:06.902Z,11.44
2023-04-10T06:41:40.518Z,11.50
2023-04-10T06:44:17.859Z,11.57
2023-04-10T06:51:51.152Z,11.60
2023-04-10T06:54:28.741Z,11.59
2023-04-10T06:56:59.222Z,11.62
2023-04-10T06:59:37.674Z,11.67
2023-04-10T07:02:14.232Z,11.69
2023-04-10T07:05:18.044Z,11.75
2023-04-10T07:08:20.742Z,11.80
2023-04-10T07:10:51.840Z,11.86
2023-04-10T07:13:25.341Z,11.89
2023-04-10T07:16:11.159Z,11.93
2023-04-10T07:19:13.036Z,12.00
2023-04-10T07:22:43.226Z,12.04
2023-04-10T07:28:28.454Z,12.10
2023-04-10T07:31:01.914Z,12.15
2023-04-10T07:33:39.691Z,12.17
2023-04-10T07:36:15.564Z,12.15
2023-04-10T07:38:59.151Z,12.22
2023-04-10T07:41:59.540Z,12.28
2023-04-10T07:44:55.478Z,12.31
2023-04-10T07:47:49.375Z,12.39
2023-04-10T07:50:32.829Z,12.48
2023-04-10T07:53:25.702Z,12.58
2023-04-10T07:56:19.852Z,12.70
2023-04-10T07:59:15.869Z,12.88
2023-04-10T08:02:18.834Z,13.11
2023-04-10T08:04:55.983Z,13.36
2023-04-10T08:07:40.220Z,13.52
2023-04-10T08:10:27.148Z,13.65
2023-04-10T08:13:13.710Z,13.78
2023-04-10T08:16:07.057Z,13.86
2023-04-10T08:19:05.273Z,13.96
2023-04-10T08:21:42.296Z,13.96
2023-04-10T08:24:31.489Z,13.86
2023-04-10T08:27:33.443Z,13.76
2023-04-10T08:30:05.465Z,13.74
2023-04-10T08:32:40.368Z,13.74
2023-04-10T08:35:22.463Z,13.78
2023-04-10T08:38:11.811Z,13.86
2023-04-10T08:40:50.854Z,13.94
2023-04-10T08:43:58.938Z,14.01
2023-04-10T08:46:45.819Z,14.07
2023-04-10T08:49:42.445Z,14.11
2023-04-10T08:52:51.084Z,14.18
2023-04-10T08:55:29.378Z,14.33
2023-04-10T08:58:05.403Z,14.42
2023-04-10T09:01:09.760Z,14.53
2023-04-10T09:03:47.425Z,14.60
2023-04-10T09:06:27.378Z,14.71
2023-04-10T09:12:03.444Z,14.77
2023-04-10T09:17:59.226Z,14.71
2023-04-10T09:20:33.408Z,14.74
2023-04-10T09:23:22.334Z,14.71
2023-04-10T09:27:18.642Z,14.71
2023-04-10T09:29:52.004Z,14.67
2023-04-10T09:32:53.967Z,14.67
2023-04-10T09:35:23.845Z,14.76
2023-04-10T09:38:17.369Z,14.83
2023-04-10T09:42:00.892Z,14.94
2023-04-10T09:45:03.646Z,14.95
2023-04-10T09:48:16.848Z,15.02
2023-04-10T09:52:00.392Z,15.13
2023-04-10T09:58:52.465Z,14.80
2023-04-10T10:01:44.314Z,14.82
2023-04-10T10:05:13.932Z,14.91
2023-04-10T10:08:04.883Z,14.95
2023-04-10T10:10:37.871Z,14.94
2023-04-10T10:13:09.814Z,14.96
2023-04-10T10:15:58.484Z,15.06
2023-04-10T10:19:15.080Z,15.18
2023-04-10T10:21:53.292Z,15.17
2023-04-10T10:24:29.770Z,15.13
2023-04-10T10:27:43.619Z,15.13
2023-04-10T10:30:48.191Z,15.26
2023-04-10T10:34:28.066Z,15.40
2023-04-10T10:37:28.058Z,15.46
2023-04-10T10:44:58.406Z,15.56
2023-04-10T10:47:51.702Z,15.64
2023-04-10T10:56:08.375Z,15.53
2023-04-10T11:00:05.381Z,15.66
2023-04-10T11:08:31.471Z,15.70
2023-04-10T11:12:17.677Z,15.83
2023-04-10T11:15:11.622Z,15.91
2023-04-10T11:22:14.950Z,16.00
2023-04-10T11:29:17.288Z,16.05
2023-04-10T11:32:20.239Z,16.03
2023-04-10T11:39:28.080Z,16.31
2023-04-10T11:42:57.035Z,16.36
2023-04-10T11:50:01.211Z,16.55
2023-04-10T11:52:46.190Z,16.62
2023-04-10T12:00:50.852Z,16.80
2023-04-10T12:03:39.401Z,16.77
2023-04-10T12:11:37.316Z,16.99
2023-04-10T12:14:41.214Z,17.03
2023-04-10T12:18:04.750Z,17.05
2023-04-10T12:20:40.263Z,17.04
2023-04-10T12:24:14.163Z,17.06
2023-04-10T12:26:52.102Z,17.13
2023-04-10T12:29:28.064Z,17.10
2023-04-10T12:36:53.840Z,17.18
2023-04-10T12:39:27.428Z,17.25
2023-04-10T12:47:05.276Z,17.46
2023-04-10T12:50:11.147Z,17.43
2023-04-10T12:53:20.227Z,17.38
2023-04-10T12:56:18.749Z,17.35
2023-04-10T12:58:54.142Z,17.37
2023-04-10T13:02:04.273Z,17.47
2023-04-10T13:04:47.675Z,17.56
2023-04-10T13:07:21.594Z,17.56
2023-04-10T13:10:13.357Z,17.56
2023-04-10T13:13:21.231Z,17.57
2023-04-10T13:15:53.080Z,17.54
2023-04-10T13:19:17.942Z,17.51
2023-04-10T13:21:58.251Z,17.43
2023-04-10T13:24:32.509Z,17.28
2023-04-10T13:27:18.141Z,17.24
2023-04-10T13:30:21.236Z,17.30
2023-04-10T13:41:42.734Z,17.31
2023-04-10T13:49:37.085Z,17.28
2023-04-10T13:52:22.338Z,17.41
2023-04-10T13:55:25.245Z,17.59
2023-04-10T13:58:03.078Z,17.72
2023-04-10T14:00:57.824Z,17.78
2023-04-10T14:03:34.870Z,17.91
2023-04-10T14:06:11.343Z,18.04
2023-04-10T14:08:43.391Z,18.18
2023-04-10T14:11:32.430Z,18.33
2023-04-10T14:14:13.538Z,18.42
2023-04-10T14:16:51.138Z,18.46
2023-04-10T14:19:24.620Z,18.58
2023-04-10T14:21:55.713Z,18.63
2023-04-10T14:25:28.678Z,18.57
2023-04-10T14:28:44.902Z,18.66
2023-04-10T14:31:59.040Z,18.68
2023-04-10T14:35:24.728Z,18.73
2023-04-10T14:38:28.031Z,18.86
2023-04-10T14:41:39.514Z,18.77
2023-04-10T14:45:19.839Z,18.70
2023-04-10T14:52:12.537Z,18.68
2023-04-10T14:55:08.015Z,18.69
2023-04-10T14:58:15.112Z,18.58
2023-04-10T15:02:07.908Z,18.50
2023-04-10T15:05:36.337Z,18.44
2023-04-10T15:09:12.480Z,18.41
2023-04-10T15:12:47.537Z,18.32
2023-04-10T15:15:18.099Z,18.26
2023-04-10T15:27:47.663Z,17.90
2023-04-10T15:34:28.461Z,17.68
2023-04-10T15:41:45.345Z,17.47
2023-04-10T15:44:19.308Z,17.31
2023-04-10T15:56:51.454Z,16.88
2023-04-10T16:00:04.048Z,16.75
2023-04-10T16:03:10.460Z,16.69
2023-04-10T16:06:01.459Z,16.63
2023-04-10T16:09:29.831Z,16.58
2023-04-10T16:13:10.167Z,16.51
2023-04-10T16:16:08.865Z,16.36
2023-04-10T16:18:47.000Z,16.31
2023-04-10T16:21:46.924Z,16.21
2023-04-10T16:29:28.091Z,15.91
2023-04-10T16:33:20.188Z,15.76
2023-04-10T16:40:07.581Z,15.40
2023-04-10T16:42:57.720Z,15.26
2023-04-10T16:50:42.597Z,15.01
2023-04-10T16:54:16.169Z,14.89
2023-04-10T16:58:17.123Z,14.80
2023-04-10T17:01:07.617Z,14.68
2023-04-10T17:03:55.225Z,14.59
2023-04-10T17:07:15.503Z,14.54
2023-04-10T17:11:19.868Z,14.47
2023-04-10T17:15:19.761Z,14.40
2023-04-10T17:30:41.684Z,14.29
2023-04-10T17:33:24.879Z,14.30
2023-04-10T17:36:15.691Z,14.29
2023-04-10T17:39:03.932Z,14.29
2023-04-10T17:42:42.774Z,14.29
2023-04-10T17:45:26.612Z,14.27
2023-04-10T17:48:23.113Z,14.24
2023-04-10T17:51:57.981Z,14.24
2023-04-10T17:55:23.372Z,14.24
2023-04-10T17:58:14.625Z,14.23
2023-04-10T18:05:15.296Z,14.21
2023-04-10T18:08:27.464Z,14.16
2023-04-10T18:11:18.938Z,14.14
2023-04-10T18:14:15.774Z,14.08
2023-04-10T18:17:19.143Z,14.03
2023-04-10T18:20:53.271Z,13.98
2023-04-10T18:28:27.857Z,13.80
2023-04-10T18:31:24.525Z,13.81
2023-04-10T18:35:04.845Z,13.79
2023-04-10T18:43:15.470Z,13.68
2023-04-10T18:47:04.276Z,13.64
2023-04-10T18:55:13.279Z,13.53
2023-04-10T19:02:49.967Z,13.39
2023-04-10T19:05:43.388Z,13.33
2023-04-10T19:09:29.925Z,13.30
2023-04-10T19:12:23.592Z,13.28
2023-04-10T19:15:09.816Z,13.24
2023-04-10T19:18:35.721Z,13.22
2023-04-10T19:32:15.798Z,13.15
2023-04-10T19:35:31.366Z,13.18
2023-04-10T19:38:38.169Z,13.13
2023-04-10T19:41:27.722Z,13.09
2023-04-10T19:44:24.985Z,13.04
2023-04-10T19:47:33.162Z,13.03
2023-04-10T19:50:17.283Z,12.96
2023-04-10T19:53:30.152Z,12.95
2023-04-10T19:59:31.422Z,12.88
2023-04-10T20:09:39.876Z,12.74
2023-04-10T20:13:09.414Z,12.71
2023-04-10T20:17:02.662Z,12.69
2023-04-10T20:20:31.513Z,12.66
2023-04-10T20:28:42.689Z,12.52
2023-04-10T20:39:19.520Z,12.45
2023-04-10T20:41:59.663Z,12.44
2023-04-10T20:44:33.604Z,12.38
2023-04-10T20:47:17.608Z,12.32
2023-04-10T20:50:12.901Z,12.26
2023-04-10T20:53:16.003Z,12.19
2023-04-10T20:56:04.230Z,12.14
2023-04-10T20:59:03.874Z,12.09
2023-04-10T21:02:12.904Z,12.05
2023-04-10T21:04:56.723Z,12.01
2023-04-10T21:07:59.413Z,11.96
2023-04-10T21:10:32.513Z,11.95
2023-04-10T21:13:07.550Z,11.93
2023-04-10T21:15:50.258Z,11.89
2023-04-10T21:18:51.207Z,11.89
2023-04-10T21:21:40.270Z,11.86
2023-04-10T21:24:22.491Z,11.83
2023-04-10T21:30:10.565Z,11.80
2023-04-10T21:32:46.840Z,11.77
2023-04-10T21:35:24.725Z,11.74
2023-04-10T21:38:10.165Z,11.70
2023-04-10T21:40:59.577Z,11.69
2023-04-10T21:48:00.412Z,11.61
2023-04-10T21:50:37.994Z,11.59
2023-04-10T21:56:55.583Z,11.51
2023-04-10T21:59:39.204Z,11.43
2023-04-10T22:02:19.264Z,11.42
2023-04-10T22:04:55.710Z,11.36
2023-04-10T22:07:41.020Z,11.31
2023-04-10T22:10:23.624Z,11.27
2023-04-10T22:13:27.407Z,11.25
2023-04-10T22:16:34.837Z,11.23
2023-04-10T22:19:36.901Z,11.19
2023-04-10T22:22:31.212Z,11.12
2023-04-10T22:25:12.280Z,11.10
2023-04-10T22:27:52.222Z,11.06
2023-04-10T22:30:28.875Z,11.05
2023-04-10T22:33:02.581Z,11.05
2023-04-10T22:35:39.715Z,11.04
2023-04-10T22:38:16.536Z,11.02
2023-04-10T22:41:00.920Z,10.99
2023-04-10T22:43:47.112Z,10.93
2023-04-10T22:46:29.356Z,10.89
2023-04-10T22:49:08.645Z,10.82
2023-04-10T22:52:05.296Z,10.76
2023-04-10T22:54:38.833Z,10.70
2023-04-10T22:57:09.036Z,10.66
2023-04-10T22:59:40.747Z,10.66
2023-04-10T23:02:10.942Z,10.65
2023-04-10T23:04:50.685Z,10.62
2023-04-10T23:07:24.008Z,10.58
2023-04-10T23:09:57.222Z,10.53
2023-04-10T23:12:38.436Z,10.49
2023-04-10T23:15:10.667Z,10.42
2023-04-10T23:17:50.450Z,10.44
2023-04-10T23:20:29.638Z,10.38
2023-04-10T23:23:08.790Z,10.33
2023-04-10T23:25:42.352Z,10.30
2023-04-10T23:28:58.378Z,10.30
2023-04-10T23:31:35.931Z,10.28
2023-04-10T23:34:14.417Z,10.25
2023-04-10T23:37:06.393Z,10.20
2023-04-10T23:39:49.920Z,10.16
2023-04-10T23:42:37.277Z,10.14
2023-04-10T23:45:17.068Z,10.12
2023-04-10T23:47:56.373Z,10.13
2023-04-10T23:50:34.398Z,10.13
2023-04-10T23:53:11.802Z,10.13
2023-04-10T23:55:57.619Z,10.11
2023-04-10T23:58:59.264Z,10.05
